Captain Nicholas Ml — C6XF3 — position and weather

sailwx.info

Track history (hours):
 
Tides and Currents Weather Stations Pressure Air Temp Water Temp Dewpoint Dewpoint Depression Visibility Wind Speed Wind Dir Waves Ship Positions

Captain Nicholas Ml

Last reported at 2017-Nov-13 21:57 UTC. Time now 2017-Nov-20 23:10 UTC.
Position N 40°44' E 029°02'.

Length 225 m; draft 8 m.

Type: Tanker. MMSI: 311007100.

Date/timePositionNaut miles runAvg speedWind from/ knotsBaromVisibWave heightAir tempDewpointWater temp
2017-Nov-13 21:57N 40°44' E 029°02'  
2017-Nov-05 06:45N 36°22' E 014°45'415.3
2017-Nov-05 06:30N 36°22' E 014°40'815.7
2017-Nov-05 06:00N 36°25' E 014°31'815.7
2017-Nov-05 05:30N 36°28' E 014°21'815.7
2017-Nov-05 05:00N 36°30' E 014°12'815.8
2017-Nov-05 04:30N 36°32' E 014°03'815.6
2017-Nov-05 03:58N 36°34' E 013°53'28414.8
2017-Nov-04 08:46N 37°49' E 008°09'16215.4
2017-Nov-03 22:15N 37°24' E 004°47'  
Track history (hours):
 
Tides and Currents Weather Stations Pressure Air Temp Water Temp Dewpoint Dewpoint Depression Visibility Wind Speed Wind Dir Waves Ship Positions

Captain Nicholas Ml

Last reported at 2017-Nov-13 21:57 UTC. Time now 2017-Nov-20 23:10 UTC.
Position N 40°44' E 029°02'.

Length 225 m; draft 8 m.

Type: Tanker. MMSI: 311007100.

Date/timePositionNaut miles runAvg speedWind from/ knotsBaromVisibWave heightAir tempDewpointWater temp
2017-Nov-13 21:57N 40°44' E 029°02'  
2017-Nov-05 06:45N 36°22' E 014°45'415.3
2017-Nov-05 06:30N 36°22' E 014°40'815.7
2017-Nov-05 06:00N 36°25' E 014°31'815.7
2017-Nov-05 05:30N 36°28' E 014°21'815.7
2017-Nov-05 05:00N 36°30' E 014°12'815.8
2017-Nov-05 04:30N 36°32' E 014°03'815.6
2017-Nov-05 03:58N 36°34' E 013°53'28414.8
2017-Nov-04 08:46N 37°49' E 008°09'16215.4
2017-Nov-03 22:15N 37°24' E 004°47'  

Dump ship's entire track history